createdAt,value
2018-02-05T00:00:06.232Z,1023.21
2018-02-05T00:01:06.212Z,1023.26
2018-02-05T00:02:06.213Z,1023.27
2018-02-05T00:03:06.148Z,1023.29
2018-02-05T00:04:06.110Z,1023.30
2018-02-05T00:05:06.084Z,1023.28
2018-02-05T00:06:06.054Z,1023.30
2018-02-05T00:07:06.028Z,1023.32
2018-02-05T00:08:06.024Z,1023.31
2018-02-05T00:09:05.966Z,1023.30
2018-02-05T00:10:05.937Z,1023.24
2018-02-05T00:11:05.910Z,1023.22
2018-02-05T00:12:05.883Z,1023.24
2018-02-05T00:13:05.890Z,1023.24
2018-02-05T00:14:05.818Z,1023.22
2018-02-05T00:15:05.793Z,1023.27
2018-02-05T00:16:05.761Z,1023.27
2018-02-05T00:17:05.738Z,1023.29
2018-02-05T00:18:05.705Z,1023.29
2018-02-05T00:19:05.703Z,1023.27
2018-02-05T00:20:05.652Z,1023.26
2018-02-05T00:21:05.612Z,1023.28
2018-02-05T00:22:05.581Z,1023.34
2018-02-05T00:23:05.560Z,1023.31
2018-02-05T00:24:05.587Z,1023.32
2018-02-05T00:25:05.499Z,1023.34
2018-02-05T00:26:05.497Z,1023.35
2018-02-05T00:27:05.439Z,1023.33
2018-02-05T00:28:05.415Z,1023.35
2018-02-05T00:29:05.381Z,1023.37
2018-02-05T00:30:05.375Z,1023.38
2018-02-05T00:31:05.325Z,1023.38
2018-02-05T00:32:05.285Z,1023.41
2018-02-05T00:33:05.259Z,1023.42
2018-02-05T00:34:05.236Z,1023.43
2018-02-05T00:35:05.244Z,1023.44
2018-02-05T00:36:05.174Z,1023.47
2018-02-05T00:37:05.140Z,1023.45
2018-02-05T00:38:05.115Z,1023.49
2018-02-05T00:39:05.079Z,1023.50
2018-02-05T00:40:05.050Z,1023.48
2018-02-05T00:41:05.046Z,1023.48
2018-02-05T00:42:04.995Z,1023.50
2018-02-05T00:43:04.957Z,1023.46
2018-02-05T00:44:04.931Z,1023.50
2018-02-05T00:45:04.903Z,1023.48
2018-02-05T00:46:04.909Z,1023.51
2018-02-05T00:47:04.841Z,1023.52
2018-02-05T00:48:04.811Z,1023.58
2018-02-05T00:49:04.788Z,1023.55
2018-02-05T00:50:04.807Z,1023.59
2018-02-05T00:51:04.728Z,1023.63
2018-02-05T00:52:04.717Z,1023.64
2018-02-05T00:53:04.665Z,1023.63
2018-02-05T00:54:04.634Z,1023.65
2018-02-05T00:55:04.600Z,1023.64
2018-02-05T00:56:04.574Z,1023.64
2018-02-05T00:57:04.580Z,1023.66
2018-02-05T00:58:04.511Z,1023.68
2018-02-05T00:59:04.482Z,1023.70
2018-02-05T01:00:04.452Z,1023.70
2018-02-05T01:01:04.422Z,1023.73
2018-02-05T01:02:04.388Z,1023.71
2018-02-05T01:03:04.389Z,1023.73
2018-02-05T01:04:04.340Z,1023.73
2018-02-05T01:05:04.306Z,1023.76
2018-02-05T01:06:04.275Z,1023.75
2018-02-05T01:07:04.299Z,1023.76
2018-02-05T01:08:04.251Z,1023.77
2018-02-05T01:09:04.183Z,1023.76
2018-02-05T01:10:04.152Z,1023.75
2018-02-05T01:11:04.130Z,1023.77
2018-02-05T01:12:04.092Z,1023.76
2018-02-05T01:13:04.059Z,1023.81
2018-02-05T01:14:04.051Z,1023.81
2018-02-05T01:15:04.002Z,1023.81
2018-02-05T01:16:03.973Z,1023.82
2018-02-05T01:17:03.940Z,1023.80
2018-02-05T01:18:03.907Z,1023.77
2018-02-05T01:19:03.903Z,1023.82
2018-02-05T01:20:03.859Z,1023.77
2018-02-05T01:21:03.841Z,1023.73
2018-02-05T01:22:03.798Z,1023.76
2018-02-05T01:23:03.804Z,1023.75
2018-02-05T01:24:03.736Z,1023.78
2018-02-05T01:25:03.705Z,1023.78
2018-02-05T01:26:03.694Z,1023.79
2018-02-05T01:27:03.639Z,1023.77
2018-02-05T01:28:03.604Z,1023.75
2018-02-05T01:29:03.584Z,1023.81
2018-02-05T01:30:03.548Z,1023.82
2018-02-05T01:31:03.544Z,1023.78
2018-02-05T01:32:03.489Z,1023.84
2018-02-05T01:33:03.467Z,1023.82
2018-02-05T01:34:03.423Z,1023.84
2018-02-05T01:35:03.411Z,1023.85
2018-02-05T01:36:03.405Z,1023.87
2018-02-05T01:37:03.332Z,1023.87
2018-02-05T01:38:03.304Z,1023.89
2018-02-05T01:39:03.274Z,1023.91
2018-02-05T01:40:03.244Z,1023.92
2018-02-05T01:41:03.217Z,1023.95
2018-02-05T01:42:03.220Z,1023.93
2018-02-05T01:43:03.155Z,1023.93
2018-02-05T01:44:03.124Z,1023.97
2018-02-05T01:45:03.091Z,1023.97
2018-02-05T01:46:03.063Z,1023.98
2018-02-05T01:47:03.037Z,1023.97
2018-02-05T01:48:03.044Z,1023.92
2018-02-05T01:49:02.971Z,1023.97
2018-02-05T01:50:02.939Z,1024.00
2018-02-05T01:51:02.909Z,1023.99
2018-02-05T01:52:02.879Z,1024.00
2018-02-05T01:53:02.853Z,1023.99
2018-02-05T01:54:02.861Z,1023.98
2018-02-05T01:55:02.790Z,1023.97
2018-02-05T01:56:02.758Z,1023.96
2018-02-05T01:57:02.725Z,1023.95
2018-02-05T01:58:02.699Z,1023.94
2018-02-05T01:59:02.666Z,1023.92
2018-02-05T02:00:02.673Z,1023.96
2018-02-05T02:01:02.602Z,1023.94
2018-02-05T02:02:02.575Z,1024.00
2018-02-05T02:03:02.547Z,1023.93
2018-02-05T02:04:02.514Z,1023.99
2018-02-05T02:05:02.487Z,1023.99
2018-02-05T02:06:02.479Z,1023.99
2018-02-05T02:07:02.423Z,1023.99
2018-02-05T02:08:02.397Z,1023.98
2018-02-05T02:09:02.362Z,1023.96
2018-02-05T02:10:02.334Z,1023.95
2018-02-05T02:11:02.326Z,1023.95
2018-02-05T02:12:02.277Z,1023.95
2018-02-05T02:13:02.242Z,1023.95
2018-02-05T02:14:02.208Z,1023.95
2018-02-05T02:15:02.180Z,1023.95
2018-02-05T02:16:02.193Z,1023.94
2018-02-05T02:17:02.121Z,1023.96
2018-02-05T02:18:02.087Z,1023.97
2018-02-05T02:19:02.057Z,1023.99
2018-02-05T02:20:02.029Z,1024.00
2018-02-05T02:21:01.994Z,1024.02
2018-02-05T02:22:02.006Z,1024.01
2018-02-05T02:23:01.941Z,1024.01
2018-02-05T02:24:01.904Z,1024.01
2018-02-05T02:25:01.875Z,1024.02
2018-02-05T02:26:01.845Z,1024.05
2018-02-05T02:27:01.818Z,1024.09
2018-02-05T02:28:01.825Z,1024.04
2018-02-05T02:29:01.750Z,1024.07
2018-02-05T02:30:01.751Z,1024.07
2018-02-05T02:31:01.701Z,1024.05
2018-02-05T02:32:01.661Z,1024.03
2018-02-05T02:33:01.628Z,1024.07
2018-02-05T02:34:01.636Z,1024.05
2018-02-05T02:35:01.571Z,1024.03
2018-02-05T02:36:01.544Z,1024.04
2018-02-05T02:37:01.511Z,1024.02
2018-02-05T02:38:01.528Z,1024.04
2018-02-05T02:39:01.450Z,1024.07
2018-02-05T02:40:01.453Z,1024.14
2018-02-05T02:41:01.385Z,1024.14
2018-02-05T02:42:01.360Z,1024.17
2018-02-05T02:43:01.329Z,1024.13
2018-02-05T02:44:01.295Z,1024.15
2018-02-05T02:45:01.266Z,1024.10
2018-02-05T02:46:01.331Z,1024.16
2018-02-05T02:47:01.203Z,1024.16
2018-02-05T02:48:01.180Z,1024.13
2018-02-05T02:49:01.146Z,1024.19
2018-02-05T02:50:01.124Z,1024.15
2018-02-05T02:51:01.112Z,1024.16
2018-02-05T02:52:01.053Z,1024.18
2018-02-05T02:53:01.025Z,1024.23
2018-02-05T02:54:00.992Z,1024.25
2018-02-05T02:55:00.962Z,1024.25
2018-02-05T02:56:00.967Z,1024.27
2018-02-05T02:57:00.903Z,1024.25
2018-02-05T02:58:00.868Z,1024.27
2018-02-05T02:59:00.839Z,1024.25
2018-02-05T03:00:01.391Z,1024.25
2018-02-05T03:01:00.780Z,1024.30
2018-02-05T03:02:00.798Z,1024.31
2018-02-05T03:03:00.718Z,1024.30
2018-02-05T03:04:00.687Z,1024.29
2018-02-05T03:05:00.658Z,1024.31
2018-02-05T03:06:00.628Z,1024.31
2018-02-05T03:07:00.610Z,1024.31
2018-02-05T03:08:00.608Z,1024.31
2018-02-05T03:09:00.538Z,1024.37
2018-02-05T03:10:00.511Z,1024.38
2018-02-05T03:11:00.478Z,1024.37
2018-02-05T03:12:00.446Z,1024.39
2018-02-05T03:13:00.426Z,1024.38
2018-02-05T03:14:00.450Z,1024.41
2018-02-05T03:15:00.357Z,1024.41
2018-02-05T03:16:00.326Z,1024.43
2018-02-05T03:17:00.300Z,1024.43
2018-02-05T03:18:00.263Z,1024.42
2018-02-05T03:19:00.232Z,1024.45
2018-02-05T03:20:00.254Z,1024.45
2018-02-05T03:21:00.182Z,1024.44
2018-02-05T03:22:00.142Z,1024.47
2018-02-05T03:23:00.113Z,1024.47
2018-02-05T03:24:00.084Z,1024.47
2018-02-05T03:25:00.057Z,1024.50
2018-02-05T03:26:00.053Z,1024.51
2018-02-05T03:26:59.992Z,1024.54
2018-02-05T03:27:59.960Z,1024.56
2018-02-05T03:28:59.929Z,1024.55
2018-02-05T03:29:59.909Z,1024.55
2018-02-05T03:30:59.897Z,1024.54
2018-02-05T03:31:59.848Z,1024.57
2018-02-05T03:32:59.809Z,1024.57
2018-02-05T03:33:59.779Z,1024.61
2018-02-05T03:34:59.750Z,1024.59
2018-02-05T03:35:59.760Z,1024.60
2018-02-05T03:36:59.687Z,1024.63
2018-02-05T03:37:59.658Z,1024.62
2018-02-05T03:38:59.628Z,1024.69
2018-02-05T03:39:59.600Z,1024.67
2018-02-05T03:40:59.568Z,1024.71
2018-02-05T03:41:59.574Z,1024.62
2018-02-05T03:42:59.515Z,1024.67
2018-02-05T03:43:59.482Z,1024.69
2018-02-05T03:44:59.447Z,1024.69
2018-02-05T03:45:59.418Z,1024.71
2018-02-05T03:46:59.387Z,1024.70
2018-02-05T03:47:59.400Z,1024.74
2018-02-05T03:48:59.324Z,1024.73
2018-02-05T03:49:59.298Z,1024.75
2018-02-05T03:50:59.268Z,1024.73
2018-02-05T03:51:59.237Z,1024.74
2018-02-05T03:52:59.206Z,1024.73
2018-02-05T03:53:59.214Z,1024.72
2018-02-05T03:54:59.156Z,1024.75
2018-02-05T03:55:59.118Z,1024.71
2018-02-05T03:56:59.083Z,1024.71
2018-02-05T03:57:59.054Z,1024.74
2018-02-05T03:58:59.027Z,1024.72
2018-02-05T03:59:59.037Z,1024.70
2018-02-05T04:00:58.975Z,1024.75
2018-02-05T04:01:58.933Z,1024.76
2018-02-05T04:02:58.904Z,1024.80
2018-02-05T04:03:58.876Z,1024.79
2018-02-05T04:04:58.846Z,1024.79
2018-02-05T04:05:58.837Z,1024.81
2018-02-05T04:06:58.784Z,1024.83
2018-02-05T04:07:58.777Z,1024.89
2018-02-05T04:08:58.731Z,1024.88
2018-02-05T04:09:58.693Z,1024.89
2018-02-05T04:10:58.692Z,1024.88
2018-02-05T04:11:58.644Z,1024.87
2018-02-05T04:12:58.604Z,1024.86
2018-02-05T04:13:58.571Z,1024.88
2018-02-05T04:14:58.543Z,1024.88
2018-02-05T04:15:58.685Z,1024.93
2018-02-05T04:16:58.481Z,1024.92
2018-02-05T04:17:58.460Z,1024.94
2018-02-05T04:18:58.429Z,1024.95
2018-02-05T04:19:58.400Z,1024.98
2018-02-05T04:20:58.361Z,1024.99
2018-02-05T04:21:58.368Z,1024.98
2018-02-05T04:22:58.301Z,1024.98
2018-02-05T04:23:58.272Z,1024.95
2018-02-05T04:24:58.242Z,1025.01
2018-02-05T04:25:58.210Z,1025.01
2018-02-05T04:26:58.217Z,1025.02
2018-02-05T04:27:58.189Z,1025.05
2018-02-05T04:28:58.124Z,1025.04
2018-02-05T04:29:58.091Z,1025.05
2018-02-05T04:30:58.065Z,1025.04
2018-02-05T04:31:58.038Z,1025.07
2018-02-05T04:32:58.008Z,1025.05
2018-02-05T04:33:58.019Z,1025.03
2018-02-05T04:34:57.938Z,1025.04
2018-02-05T04:35:57.910Z,1025.06
2018-02-05T04:36:57.883Z,1025.05
2018-02-05T04:37:57.854Z,1025.08
2018-02-05T04:38:57.818Z,1025.09
2018-02-05T04:39:57.834Z,1025.09
2018-02-05T04:40:57.762Z,1025.11
2018-02-05T04:41:57.732Z,1025.12
2018-02-05T04:42:57.701Z,1025.14
2018-02-05T04:43:57.671Z,1025.12
2018-02-05T04:44:57.646Z,1025.15
2018-02-05T04:45:57.638Z,1025.13
2018-02-05T04:46:57.582Z,1025.14
2018-02-05T04:47:57.549Z,1025.12
2018-02-05T04:48:57.516Z,1025.13
2018-02-05T04:49:57.488Z,1025.14
2018-02-05T04:50:57.493Z,1025.16
2018-02-05T04:51:57.430Z,1025.17
2018-02-05T04:52:57.396Z,1025.15
2018-02-05T04:53:57.372Z,1025.14
2018-02-05T04:54:57.337Z,1025.17
2018-02-05T04:55:57.338Z,1025.15
2018-02-05T04:56:57.273Z,1025.11
2018-02-05T04:57:57.247Z,1025.13
2018-02-05T04:58:57.213Z,1025.12
2018-02-05T04:59:57.185Z,1025.15
2018-02-05T05:00:57.249Z,1025.13
2018-02-05T05:01:57.123Z,1025.16
2018-02-05T05:02:57.095Z,1025.17
2018-02-05T05:03:57.063Z,1025.20
2018-02-05T05:04:57.043Z,1025.18
2018-02-05T05:05:57.000Z,1025.21
2018-02-05T05:06:57.015Z,1025.22
2018-02-05T05:07:56.946Z,1025.22
2018-02-05T05:08:56.914Z,1025.24
2018-02-05T05:09:56.880Z,1025.23
2018-02-05T05:10:56.852Z,1025.23
2018-02-05T05:11:56.846Z,1025.27
2018-02-05T05:12:56.826Z,1025.28
2018-02-05T05:13:56.760Z,1025.30
2018-02-05T05:14:56.726Z,1025.30
2018-02-05T05:15:56.708Z,1025.25
2018-02-05T05:16:56.673Z,1025.28
2018-02-05T05:17:56.678Z,1025.27
2018-02-05T05:18:56.610Z,1025.27
2018-02-05T05:19:56.582Z,1025.28
2018-02-05T05:20:56.562Z,1025.26
2018-02-05T05:21:56.521Z,1025.27
2018-02-05T05:22:56.487Z,1025.22
2018-02-05T05:23:56.509Z,1025.25
2018-02-05T05:24:56.428Z,1025.26
2018-02-05T05:25:56.396Z,1025.24
2018-02-05T05:26:56.380Z,1025.29
2018-02-05T05:27:56.338Z,1025.30
2018-02-05T05:28:56.348Z,1025.33
2018-02-05T05:29:56.281Z,1025.29
2018-02-05T05:30:56.247Z,1025.32
2018-02-05T05:31:56.215Z,1025.30
2018-02-05T05:32:56.188Z,1025.29
2018-02-05T05:33:56.158Z,1025.27
2018-02-05T05:34:56.169Z,1025.25
2018-02-05T05:35:56.095Z,1025.30
2018-02-05T05:36:56.063Z,1025.30
2018-02-05T05:37:56.034Z,1025.26
2018-02-05T05:38:56.004Z,1025.32
2018-02-05T05:39:55.971Z,1025.37
2018-02-05T05:40:55.968Z,1025.35
2018-02-05T05:41:55.909Z,1025.37
2018-02-05T05:42:55.888Z,1025.36
2018-02-05T05:43:55.860Z,1025.38
2018-02-05T05:44:55.822Z,1025.43
2018-02-05T05:45:55.819Z,1025.38
2018-02-05T05:46:55.760Z,1025.35
2018-02-05T05:47:55.732Z,1025.38
2018-02-05T05:48:55.700Z,1025.42
2018-02-05T05:49:55.671Z,1025.42
2018-02-05T05:50:55.676Z,1025.44
2018-02-05T05:51:55.613Z,1025.45
2018-02-05T05:52:55.579Z,1025.44
2018-02-05T05:53:56.440Z,1025.45
2018-02-05T05:54:55.521Z,1025.46
2018-02-05T05:55:55.492Z,1025.46
2018-02-05T05:56:55.499Z,1025.46
2018-02-05T05:57:55.433Z,1025.46
2018-02-05T05:58:55.396Z,1025.47
2018-02-05T05:59:55.365Z,1025.43
2018-02-05T06:00:55.340Z,1025.42
2018-02-05T06:01:55.343Z,1025.42
2018-02-05T06:02:55.299Z,1025.41
2018-02-05T06:03:55.347Z,1025.45
2018-02-05T06:04:55.223Z,1025.45
2018-02-05T06:05:55.180Z,1025.51
2018-02-05T06:06:55.158Z,1025.49
2018-02-05T06:07:55.155Z,1025.50
2018-02-05T06:08:55.090Z,1025.54
2018-02-05T06:09:55.058Z,1025.52
2018-02-05T06:10:55.032Z,1025.53
2018-02-05T06:11:54.997Z,1025.50
2018-02-05T06:12:55.001Z,1025.56
2018-02-05T06:13:54.940Z,1025.57
2018-02-05T06:14:54.908Z,1025.58
2018-02-05T06:15:54.924Z,1025.61
2018-02-05T06:16:54.846Z,1025.63
2018-02-05T06:17:54.822Z,1025.66
2018-02-05T06:18:54.786Z,1025.67
2018-02-05T06:19:54.758Z,1025.66
2018-02-05T06:20:54.837Z,1025.70
2018-02-05T06:21:54.692Z,1025.69
2018-02-05T06:22:54.675Z,1025.74
2018-02-05T06:23:54.642Z,1025.73
2018-02-05T06:24:54.603Z,1025.75
2018-02-05T06:25:54.579Z,1025.75
2018-02-05T06:26:54.583Z,1025.75
2018-02-05T06:27:54.527Z,1025.80
2018-02-05T06:28:54.483Z,1025.81
2018-02-05T06:29:54.461Z,1025.84
2018-02-05T06:30:54.417Z,1025.80
2018-02-05T06:31:54.387Z,1025.85
2018-02-05T06:32:54.386Z,1025.87
2018-02-05T06:33:54.359Z,1025.85
2018-02-05T06:34:54.302Z,1025.83
2018-02-05T06:35:54.270Z,1025.83
2018-02-05T06:36:54.234Z,1025.83
2018-02-05T06:37:54.232Z,1025.86
2018-02-05T06:38:54.175Z,1025.86
2018-02-05T06:39:54.149Z,1025.85
2018-02-05T06:40:54.114Z,1025.88
2018-02-05T06:41:54.097Z,1025.88
2018-02-05T06:42:54.087Z,1025.93
2018-02-05T06:43:54.032Z,1025.92
2018-02-05T06:44:53.994Z,1025.95
2018-02-05T06:45:54.047Z,1025.94
2018-02-05T06:46:53.929Z,1025.96
2018-02-05T06:47:53.898Z,1025.96
2018-02-05T06:48:53.870Z,1025.94
2018-02-05T06:49:53.867Z,1025.96
2018-02-05T06:50:53.818Z,1025.92
2018-02-05T06:51:53.780Z,1025.99
2018-02-05T06:52:53.749Z,1025.95
2018-02-05T06:53:53.727Z,1025.94
2018-02-05T06:54:53.714Z,1025.93
2018-02-05T06:55:53.657Z,1025.98
2018-02-05T06:56:53.625Z,1026.00
2018-02-05T06:57:53.594Z,1026.01
2018-02-05T06:58:53.562Z,1026.01
2018-02-05T06:59:53.570Z,1026.01
2018-02-05T07:00:53.503Z,1026.00
2018-02-05T07:01:53.473Z,1026.01
2018-02-05T07:02:53.446Z,1026.01
2018-02-05T07:03:53.416Z,1026.01
2018-02-05T07:04:53.382Z,1026.00
2018-02-05T07:05:53.397Z,1026.02
2018-02-05T07:06:53.326Z,1026.02
2018-02-05T07:07:53.289Z,1026.04
2018-02-05T07:08:53.259Z,1026.03
2018-02-05T07:09:53.232Z,1026.07
2018-02-05T07:10:53.201Z,1026.07
2018-02-05T07:11:53.251Z,1026.07
2018-02-05T07:12:53.140Z,1026.10
2018-02-05T07:13:53.108Z,1026.08
2018-02-05T07:14:53.077Z,1026.11
2018-02-05T07:15:53.055Z,1026.11
2018-02-05T07:16:53.017Z,1026.10
2018-02-05T07:17:53.011Z,1026.04
2018-02-05T07:18:52.958Z,1026.10
2018-02-05T07:19:52.926Z,1026.12
2018-02-05T07:20:52.918Z,1026.12
2018-02-05T07:21:52.873Z,1026.18
2018-02-05T07:22:52.873Z,1026.20
2018-02-05T07:23:52.818Z,1026.15
2018-02-05T07:24:52.770Z,1026.19
2018-02-05T07:25:52.790Z,1026.20
2018-02-05T07:26:52.714Z,1026.18
2018-02-05T07:27:52.684Z,1026.16
2018-02-05T07:28:52.659Z,1026.16
2018-02-05T07:29:52.632Z,1026.19
2018-02-05T07:30:52.677Z,1026.20
2018-02-05T07:31:52.605Z,1026.23
2018-02-05T07:32:52.532Z,1026.24
2018-02-05T07:33:52.500Z,1026.22
2018-02-05T07:34:52.523Z,1026.24
2018-02-05T07:35:52.470Z,1026.25
2018-02-05T07:36:52.413Z,1026.28
2018-02-05T07:37:52.384Z,1026.32
2018-02-05T07:38:52.347Z,1026.31
2018-02-05T07:39:52.320Z,1026.31
2018-02-05T07:40:52.313Z,1026.36
2018-02-05T07:41:52.296Z,1026.35
2018-02-05T07:42:52.231Z,1026.38
2018-02-05T07:43:52.207Z,1026.36
2018-02-05T07:44:52.168Z,1026.36
2018-02-05T07:45:52.142Z,1026.34
2018-02-05T07:46:52.112Z,1026.35
2018-02-05T07:47:52.110Z,1026.34
2018-02-05T07:48:52.045Z,1026.34
2018-02-05T07:49:52.054Z,1026.37
2018-02-05T07:50:52.017Z,1026.43
2018-02-05T07:51:51.957Z,1026.39
2018-02-05T07:52:51.926Z,1026.39
2018-02-05T07:53:51.893Z,1026.38
2018-02-05T07:54:51.870Z,1026.34
2018-02-05T07:55:51.873Z,1026.40
2018-02-05T07:56:51.806Z,1026.39
2018-02-05T07:57:51.783Z,1026.40
2018-02-05T07:58:51.760Z,1026.40
2018-02-05T07:59:51.722Z,1026.43
2018-02-05T08:00:51.745Z,1026.45
2018-02-05T08:01:51.683Z,1026.45
2018-02-05T08:02:51.638Z,1026.46
2018-02-05T08:03:51.594Z,1026.44
2018-02-05T08:04:51.565Z,1026.46
2018-02-05T08:05:51.564Z,1026.47
2018-02-05T08:06:51.511Z,1026.49
2018-02-05T08:07:51.478Z,1026.49
2018-02-05T08:08:51.446Z,1026.43
2018-02-05T08:09:51.419Z,1026.46
2018-02-05T08:10:51.425Z,1026.50
2018-02-05T08:11:51.370Z,1026.53
2018-02-05T08:12:51.333Z,1026.52
2018-02-05T08:13:51.302Z,1026.52
2018-02-05T08:14:51.267Z,1026.53
2018-02-05T08:15:51.591Z,1026.58
2018-02-05T08:16:51.221Z,1026.57
2018-02-05T08:17:51.181Z,1026.64
2018-02-05T08:18:51.153Z,1026.62
2018-02-05T08:19:51.124Z,1026.64
2018-02-05T08:20:51.117Z,1026.64
2018-02-05T08:21:51.060Z,1026.61
2018-02-05T08:22:51.047Z,1026.62
2018-02-05T08:23:51.355Z,1026.63
2018-02-05T08:24:50.974Z,1026.61
2018-02-05T08:25:50.944Z,1026.65
2018-02-05T08:26:50.920Z,1026.58
2018-02-05T08:27:50.882Z,1026.63
2018-02-05T08:28:50.863Z,1026.60
2018-02-05T08:29:50.856Z,1026.61
2018-02-05T08:30:50.796Z,1026.61
2018-02-05T08:31:50.770Z,1026.61
2018-02-05T08:32:50.746Z,1026.61
2018-02-05T08:33:50.719Z,1026.61
2018-02-05T08:34:50.724Z,1026.60
2018-02-05T08:35:50.655Z,1026.63
2018-02-05T08:36:50.617Z,1026.63
2018-02-05T08:37:50.591Z,1026.65
2018-02-05T08:38:50.557Z,1026.65
2018-02-05T08:39:50.537Z,1026.64
2018-02-05T08:40:50.531Z,1026.62
2018-02-05T08:41:50.466Z,1026.62
2018-02-05T08:42:50.437Z,1026.63
2018-02-05T08:43:50.427Z,1026.63
2018-02-05T08:44:50.438Z,1026.66
2018-02-05T08:45:50.391Z,1026.65
2018-02-05T08:46:50.336Z,1026.62
2018-02-05T08:47:50.369Z,1026.60
2018-02-05T08:48:50.271Z,1026.61
2018-02-05T08:49:50.245Z,1026.58
2018-02-05T08:50:50.214Z,1026.56
2018-02-05T08:51:50.217Z,1026.60
2018-02-05T08:52:50.150Z,1026.62
2018-02-05T08:53:50.118Z,1026.64
2018-02-05T08:54:50.091Z,1026.62
2018-02-05T08:55:50.060Z,1026.66
2018-02-05T08:56:50.060Z,1026.64
2018-02-05T08:57:50.015Z,1026.63
2018-02-05T08:58:49.982Z,1026.65
2018-02-05T08:59:49.971Z,1026.69
2018-02-05T09:00:49.943Z,1026.64
2018-02-05T09:01:49.895Z,1026.65
2018-02-05T09:02:49.856Z,1026.65
2018-02-05T09:03:49.852Z,1026.65
2018-02-05T09:04:49.812Z,1026.67
2018-02-05T09:05:49.771Z,1026.65
2018-02-05T09:06:49.743Z,1026.69
2018-02-05T09:07:49.728Z,1026.71
2018-02-05T09:08:50.356Z,1026.71
2018-02-05T09:09:49.652Z,1026.73
2018-02-05T09:10:49.629Z,1026.71
2018-02-05T09:11:49.600Z,1026.73
2018-02-05T09:12:49.565Z,1026.73
2018-02-05T09:13:49.534Z,1026.76
2018-02-05T09:14:49.540Z,1026.76
2018-02-05T09:15:49.482Z,1026.73
2018-02-05T09:16:49.455Z,1026.77
2018-02-05T09:17:49.422Z,1026.79
2018-02-05T09:18:49.397Z,1026.82
2018-02-05T09:19:49.360Z,1026.83
2018-02-05T09:20:49.363Z,1026.87
2018-02-05T09:21:49.333Z,1026.87
2018-02-05T09:22:49.310Z,1026.84
2018-02-05T09:23:49.247Z,1026.78
2018-02-05T09:24:49.215Z,1026.78
2018-02-05T09:25:49.218Z,1026.76
2018-02-05T09:26:49.163Z,1026.75
2018-02-05T09:27:49.137Z,1026.76
2018-02-05T09:28:49.107Z,1026.76
2018-02-05T09:29:49.081Z,1026.78
2018-02-05T09:30:49.078Z,1026.83
2018-02-05T09:31:49.018Z,1026.82
2018-02-05T09:32:48.996Z,1026.83
2018-02-05T09:33:48.965Z,1026.84
2018-02-05T09:34:48.936Z,1026.86
2018-02-05T09:35:48.928Z,1026.88
2018-02-05T09:36:48.875Z,1026.90
2018-02-05T09:37:48.855Z,1026.87
2018-02-05T09:38:48.822Z,1026.84
2018-02-05T09:39:48.804Z,1026.87
2018-02-05T09:40:48.788Z,1026.94
2018-02-05T09:41:48.742Z,1026.92
2018-02-05T09:42:48.707Z,1026.90
2018-02-05T09:43:48.719Z,1026.93
2018-02-05T09:44:48.661Z,1026.99
2018-02-05T09:45:48.633Z,1027.01
2018-02-05T09:46:48.598Z,1026.99
2018-02-05T09:47:48.570Z,1026.97
2018-02-05T09:48:48.540Z,1027.02
2018-02-05T09:49:48.560Z,1027.05
2018-02-05T09:50:48.512Z,1027.14
2018-02-05T09:51:48.460Z,1027.15
2018-02-05T09:52:48.427Z,1027.20
2018-02-05T09:53:48.404Z,1027.20
2018-02-05T09:54:48.387Z,1027.36
2018-02-05T09:55:48.382Z,1027.43
2018-02-05T09:56:48.324Z,1027.39
2018-02-05T09:57:48.295Z,1027.33
2018-02-05T09:58:48.268Z,1027.33
2018-02-05T09:59:48.237Z,1027.26
2018-02-05T10:00:48.247Z,1027.33
2018-02-05T10:01:48.178Z,1027.54
2018-02-05T10:02:48.161Z,1027.58
2018-02-05T10:03:48.131Z,1027.61
2018-02-05T10:04:48.119Z,1027.50
2018-02-05T10:05:48.073Z,1027.55
2018-02-05T10:06:48.083Z,1028.27
2018-02-05T10:07:48.021Z,1028.22
2018-02-05T10:08:48.001Z,1027.99
2018-02-05T10:09:47.971Z,1028.20
2018-02-05T10:10:47.939Z,1027.72
2018-02-05T10:11:47.910Z,1028.61
2018-02-05T10:12:47.912Z,1028.44
2018-02-05T10:13:47.859Z,1027.62
2018-02-05T10:14:47.836Z,1028.63
2018-02-05T10:15:47.815Z,1028.99
2018-02-05T10:16:47.785Z,1027.54
2018-02-05T10:17:47.802Z,1027.97
2018-02-05T10:18:47.737Z,1027.57
2018-02-05T10:19:47.719Z,1028.46
2018-02-05T10:20:47.698Z,1029.09
2018-02-05T10:21:47.675Z,1027.60
2018-02-05T10:22:47.650Z,1027.53
2018-02-05T10:23:47.657Z,1027.61
2018-02-05T10:24:47.602Z,1027.73
2018-02-05T10:25:47.605Z,1029.20
2018-02-05T10:26:47.560Z,1029.27
2018-02-05T10:27:47.534Z,1029.25
2018-02-05T10:28:47.519Z,1029.33
2018-02-05T10:29:47.490Z,1027.93
2018-02-05T10:30:47.493Z,1028.34
2018-02-05T10:31:47.448Z,1029.49
2018-02-05T10:32:47.445Z,1027.62
2018-02-05T10:33:47.415Z,1027.36
2018-02-05T10:34:47.384Z,1027.28
2018-02-05T10:35:47.395Z,1027.16
2018-02-05T10:36:47.342Z,1027.12
2018-02-05T10:37:47.335Z,1026.96
2018-02-05T10:38:47.303Z,1026.97
2018-02-05T10:39:47.283Z,1027.00
2018-02-05T10:40:47.305Z,1026.97
2018-02-05T10:41:47.249Z,1027.04
2018-02-05T10:42:47.219Z,1027.05
2018-02-05T10:43:47.204Z,1030.01
2018-02-05T10:44:47.185Z,1030.14
2018-02-05T10:45:47.158Z,1027.56
2018-02-05T10:46:47.174Z,1030.49
2018-02-05T10:47:47.449Z,1030.50
2018-02-05T10:48:47.098Z,1029.23
2018-02-05T10:49:47.084Z,1027.45
2018-02-05T10:50:47.093Z,1031.36
2018-02-05T10:51:47.037Z,1031.42
2018-02-05T10:52:47.013Z,1031.71
2018-02-05T10:53:46.995Z,1030.75
2018-02-05T10:54:46.999Z,1031.77
2018-02-05T10:55:46.985Z,1031.88
2018-02-05T10:56:46.938Z,1030.27
2018-02-05T10:57:46.920Z,1027.28
2018-02-05T10:58:46.910Z,1027.14
2018-02-05T10:59:46.890Z,1027.14
2018-02-05T11:00:46.900Z,1027.97
2018-02-05T11:01:46.850Z,1028.66
2018-02-05T11:02:46.833Z,1027.16
2018-02-05T11:03:46.818Z,1027.04
2018-02-05T11:04:46.870Z,1027.37
2018-02-05T11:05:46.812Z,1033.07
2018-02-05T11:06:46.756Z,1027.46
2018-02-05T11:07:46.740Z,1027.15
2018-02-05T11:08:46.719Z,1027.10
2018-02-05T11:09:46.703Z,1027.05
2018-02-05T11:10:46.708Z,1026.99
2018-02-05T11:11:46.662Z,1026.91
2018-02-05T11:12:46.645Z,1026.86
2018-02-05T11:13:46.617Z,1026.83
2018-02-05T11:14:46.642Z,1026.93
2018-02-05T11:15:46.616Z,1026.99
2018-02-05T11:16:46.564Z,1026.99
2018-02-05T11:17:46.535Z,1027.10
2018-02-05T11:18:46.535Z,1026.97
2018-02-05T11:19:46.499Z,1026.92
2018-02-05T11:20:46.509Z,1026.91
2018-02-05T11:21:46.449Z,1026.97
2018-02-05T11:22:46.460Z,1033.47
2018-02-05T11:23:46.401Z,1027.57
2018-02-05T11:24:46.429Z,1029.36
2018-02-05T11:25:46.354Z,1027.63
2018-02-05T11:26:46.350Z,1030.93
2018-02-05T11:27:46.311Z,1027.64
2018-02-05T11:28:46.312Z,1027.54
2018-02-05T11:29:46.263Z,1027.56
2018-02-05T11:30:46.247Z,1027.26
2018-02-05T11:31:46.218Z,1036.35
2018-02-05T11:32:46.193Z,1036.12
2018-02-05T11:33:46.212Z,1036.83
2018-02-05T11:34:46.149Z,1028.02
2018-02-05T11:35:46.132Z,1027.32
2018-02-05T11:36:46.138Z,1027.24
2018-02-05T11:37:46.882Z,1026.98
2018-02-05T11:38:46.062Z,1027.02
2018-02-05T11:39:46.063Z,1036.80
2018-02-05T11:40:46.026Z,1035.21
2018-02-05T11:41:46.001Z,1026.93
2018-02-05T11:42:45.979Z,1026.84
2018-02-05T11:43:45.983Z,1026.89
2018-02-05T11:44:45.960Z,1027.24
2018-02-05T11:45:45.963Z,1028.56
2018-02-05T11:46:45.906Z,1026.83
2018-02-05T11:47:45.874Z,1026.79
2018-02-05T11:48:45.879Z,1026.68
2018-02-05T11:49:45.830Z,1026.78
2018-02-05T11:50:45.806Z,1026.76
2018-02-05T11:51:45.833Z,1026.80
2018-02-05T11:52:45.765Z,1027.01
2018-02-05T11:53:45.744Z,1026.86
2018-02-05T11:54:45.720Z,1026.79
2018-02-05T11:55:45.702Z,1030.23
2018-02-05T11:56:45.691Z,1026.92
2018-02-05T11:57:45.689Z,1026.86
2018-02-05T11:58:45.636Z,1026.76
2018-02-05T11:59:45.625Z,1026.79
2018-02-05T12:00:45.594Z,1026.73
2018-02-05T12:01:45.561Z,1026.71
2018-02-05T12:02:45.579Z,1026.82
2018-02-05T12:03:46.478Z,1026.93
2018-02-05T12:04:45.493Z,1026.67